sensor_id;sensor_type;location;lat;lon;timestamp;pressure;altitude;pressure_sealevel;temperature;humidity
71485;BME280;59300;52.074;4.758;2022-12-17T00:02:10;102283.47;;;-2.86;100.00
71485;BME280;59300;52.074;4.758;2022-12-17T00:05:11;102277.56;;;-2.83;100.00
71485;BME280;59300;52.074;4.758;2022-12-17T00:08:12;102283.31;;;-2.89;100.00
71485;BME280;59300;52.074;4.758;2022-12-17T00:11:14;102283.47;;;-2.86;100.00
71485;BME280;59300;52.074;4.758;2022-12-17T00:14:15;102280.09;;;-2.85;100.00
71485;BME280;59300;52.074;4.758;2022-12-17T00:17:17;102288.47;;;-2.89;100.00
71485;BME280;59300;52.074;4.758;2022-12-17T00:20:18;102287.16;;;-2.81;100.00
71485;BME280;59300;52.074;4.758;2022-12-17T00:23:20;102293.00;;;-2.85;100.00
71485;BME280;59300;52.074;4.758;2022-12-17T00:26:21;102288.66;;;-2.86;100.00
71485;BME280;59300;52.074;4.758;2022-12-17T00:29:23;102282.56;;;-2.86;100.00
71485;BME280;59300;52.074;4.758;2022-12-17T00:32:24;102286.88;;;-2.87;100.00
71485;BME280;59300;52.074;4.758;2022-12-17T00:35:26;102290.44;;;-2.85;100.00
71485;BME280;59300;52.074;4.758;2022-12-17T00:38:27;102293.00;;;-2.85;100.00
71485;BME280;59300;52.074;4.758;2022-12-17T00:41:29;102292.19;;;-2.84;100.00
71485;BME280;59300;52.074;4.758;2022-12-17T00:44:32;102290.44;;;-2.85;100.00
71485;BME280;59300;52.074;4.758;2022-12-17T00:47:33;102292.19;;;-2.84;100.00
71485;BME280;59300;52.074;4.758;2022-12-17T00:50:35;102288.72;;;-2.84;100.00
71485;BME280;59300;52.074;4.758;2022-12-17T00:53:36;102292.34;;;-2.81;100.00
71485;BME280;59300;52.074;4.758;2022-12-17T00:56:39;102297.81;;;-2.74;100.00
71485;BME280;59300;52.074;4.758;2022-12-17T00:59:40;102299.72;;;-2.70;100.00
71485;BME280;59300;52.074;4.758;2022-12-17T01:02:42;102311.84;;;-2.69;100.00
71485;BME280;59300;52.074;4.758;2022-12-17T01:05:43;102303.28;;;-2.68;100.00
71485;BME280;59300;52.074;4.758;2022-12-17T01:08:45;102305.22;;;-2.64;100.00
71485;BME280;59300;52.074;4.758;2022-12-17T01:11:46;102301.09;;;-2.60;100.00
71485;BME280;59300;52.074;4.758;2022-12-17T01:14:48;102300.44;;;-2.56;100.00
71485;BME280;59300;52.074;4.758;2022-12-17T01:17:51;102299.53;;;-2.57;100.00
71485;BME280;59300;52.074;4.758;2022-12-17T01:20:56;102308.25;;;-2.55;100.00
71485;BME280;59300;52.074;4.758;2022-12-17T01:23:58;102309.22;;;-2.53;100.00
71485;BME280;59300;52.074;4.758;2022-12-17T01:26:59;102305.50;;;-2.58;100.00
71485;BME280;59300;52.074;4.758;2022-12-17T01:30:01;102309.97;;;-2.55;100.00
71485;BME280;59300;52.074;4.758;2022-12-17T01:33:04;102311.97;;;-2.50;100.00
71485;BME280;59300;52.074;4.758;2022-12-17T01:36:07;102304.06;;;-2.53;100.00
71485;BME280;59300;52.074;4.758;2022-12-17T01:39:08;102306.84;;;-2.48;100.00
71485;BME280;59300;52.074;4.758;2022-12-17T01:42:12;102313.75;;;-2.49;100.00
71485;BME280;59300;52.074;4.758;2022-12-17T01:45:14;102319.72;;;-2.50;100.00
71485;BME280;59300;52.074;4.758;2022-12-17T01:48:16;102324.09;;;-2.49;100.00
71485;BME280;59300;52.074;4.758;2022-12-17T01:51:18;102325.06;;;-2.47;100.00
71485;BME280;59300;52.074;4.758;2022-12-17T01:54:20;102320.75;;;-2.46;100.00
71485;BME280;59300;52.074;4.758;2022-12-17T01:57:23;102325.13;;;-2.45;100.00
71485;BME280;59300;52.074;4.758;2022-12-17T02:00:25;102325.06;;;-2.47;100.00
71485;BME280;59300;52.074;4.758;2022-12-17T02:03:26;102320.00;;;-2.43;100.00
71485;BME280;59300;52.074;4.758;2022-12-17T02:06:30;102326.97;;;-2.42;100.00
71485;BME280;59300;52.074;4.758;2022-12-17T02:09:49;102329.38;;;-2.45;100.00
71485;BME280;59300;52.074;4.758;2022-12-17T02:13:01;102332.13;;;-2.42;100.00
71485;BME280;59300;52.074;4.758;2022-12-17T02:16:12;102324.38;;;-2.42;100.00
71485;BME280;59300;52.074;4.758;2022-12-17T02:19:38;102336.44;;;-2.43;100.00
71485;BME280;59300;52.074;4.758;2022-12-17T02:26:01;102339.00;;;-2.43;100.00
71485;BME280;59300;52.074;4.758;2022-12-17T02:29:05;102335.63;;;-2.42;100.00
71485;BME280;59300;52.074;4.758;2022-12-17T02:32:09;102341.66;;;-2.41;100.00
71485;BME280;59300;52.074;4.758;2022-12-17T02:35:21;102339.59;;;-2.49;100.00
71485;BME280;59300;52.074;4.758;2022-12-17T02:38:28;102355.97;;;-2.48;100.00
71485;BME280;59300;52.074;4.758;2022-12-17T02:41:37;102355.91;;;-2.50;100.00
71485;BME280;59300;52.074;4.758;2022-12-17T02:44:42;102358.34;;;-2.53;100.00
71485;BME280;59300;52.074;4.758;2022-12-17T02:47:44;102362.53;;;-2.55;100.00
71485;BME280;59300;52.074;4.758;2022-12-17T02:50:46;102360.91;;;-2.53;100.00
71485;BME280;59300;52.074;4.758;2022-12-17T02:53:50;102363.28;;;-2.57;100.00
71485;BME280;59300;52.074;4.758;2022-12-17T02:56:53;102364.91;;;-2.59;100.00
71485;BME280;59300;52.074;4.758;2022-12-17T02:59:54;102362.97;;;-2.64;100.00
71485;BME280;59300;52.074;4.758;2022-12-17T03:02:57;102371.56;;;-2.65;100.00
71485;BME280;59300;52.074;4.758;2022-12-17T03:05:58;102365.47;;;-2.65;100.00
71485;BME280;59300;52.074;4.758;2022-12-17T03:09:00;102370.66;;;-2.65;100.00
71485;BME280;59300;52.074;4.758;2022-12-17T03:12:02;102370.66;;;-2.65;100.00
71485;BME280;59300;52.074;4.758;2022-12-17T03:15:04;102375.81;;;-2.65;100.00
71485;BME280;59300;52.074;4.758;2022-12-17T03:18:05;102382.59;;;-2.67;100.00
71485;BME280;59300;52.074;4.758;2022-12-17T03:21:07;102374.84;;;-2.67;100.00
71485;BME280;59300;52.074;4.758;2022-12-17T03:24:08;102383.16;;;-2.73;100.00
71485;BME280;59300;52.074;4.758;2022-12-17T03:27:10;102378.41;;;-2.82;100.00
71485;BME280;59300;52.074;4.758;2022-12-17T03:30:12;102384.94;;;-2.88;100.00
71485;BME280;59300;52.074;4.758;2022-12-17T03:33:13;102389.41;;;-2.86;100.00
71485;BME280;59300;52.074;4.758;2022-12-17T03:36:14;102387.47;;;-2.90;100.00
71485;BME280;59300;52.074;4.758;2022-12-17T03:39:16;102380.44;;;-2.92;100.00
71485;BME280;59300;52.074;4.758;2022-12-17T03:42:17;102384.72;;;-2.93;100.00
71485;BME280;59300;52.074;4.758;2022-12-17T03:45:19;102386.50;;;-2.92;100.00
71485;BME280;59300;52.074;4.758;2022-12-17T03:48:20;102393.13;;;-2.97;100.00
71485;BME280;59300;52.074;4.758;2022-12-17T03:51:22;102400.88;;;-2.97;100.00
71485;BME280;59300;52.074;4.758;2022-12-17T03:54:23;102399.09;;;-2.98;100.00
71485;BME280;59300;52.074;4.758;2022-12-17T03:57:25;102398.31;;;-2.97;100.00
71485;BME280;59300;52.074;4.758;2022-12-17T04:00:26;102392.84;;;-3.02;100.00
71485;BME280;59300;52.074;4.758;2022-12-17T04:03:28;102403.13;;;-3.03;100.00
71485;BME280;59300;52.074;4.758;2022-12-17T04:06:29;102403.69;;;-3.09;100.00
71485;BME280;59300;52.074;4.758;2022-12-17T04:09:31;102401.66;;;-3.15;100.00
71485;BME280;59300;52.074;4.758;2022-12-17T04:12:32;102405.28;;;-3.11;100.00
71485;BME280;59300;52.074;4.758;2022-12-17T04:15:34;102402.97;;;-3.06;100.00
71485;BME280;59300;52.074;4.758;2022-12-17T04:18:35;102398.53;;;-3.09;100.00
71485;BME280;59300;52.074;4.758;2022-12-17T04:21:37;102403.69;;;-3.09;100.00
71485;BME280;59300;52.074;4.758;2022-12-17T04:24:39;102412.97;;;-3.13;100.00
71485;BME280;59300;52.074;4.758;2022-12-17T04:27:41;102410.28;;;-3.14;100.00
71485;BME280;59300;52.074;4.758;2022-12-17T04:30:42;102413.72;;;-3.15;100.00
71485;BME280;59300;52.074;4.758;2022-12-17T04:33:43;102408.44;;;-3.17;100.00
71485;BME280;59300;52.074;4.758;2022-12-17T04:36:45;102413.53;;;-3.18;100.00
71485;BME280;59300;52.074;4.758;2022-12-17T04:39:46;102412.81;;;-3.16;100.00
71485;BME280;59300;52.074;4.758;2022-12-17T04:42:48;102412.50;;;-3.22;100.00
71485;BME280;59300;52.074;4.758;2022-12-17T04:45:49;102407.16;;;-3.25;100.00
71485;BME280;59300;52.074;4.758;2022-12-17T04:48:51;102412.50;;;-3.22;100.00
71485;BME280;59300;52.074;4.758;2022-12-17T04:51:52;102407.31;;;-3.22;100.00
71485;BME280;59300;52.074;4.758;2022-12-17T04:54:54;102412.31;;;-3.25;100.00
71485;BME280;59300;52.074;4.758;2022-12-17T04:58:03;102423.44;;;-3.26;100.00
71485;BME280;59300;52.074;4.758;2022-12-17T05:01:05;102419.97;;;-3.27;100.00
71485;BME280;59300;52.074;4.758;2022-12-17T05:04:07;102409.56;;;-3.28;100.00
71485;BME280;59300;52.074;4.758;2022-12-17T05:07:09;102408.69;;;-3.29;100.00
71485;BME280;59300;52.074;4.758;2022-12-17T05:10:11;102409.50;;;-3.30;100.00
71485;BME280;59300;52.074;4.758;2022-12-17T05:13:12;102409.00;;;-3.22;100.00
71485;BME280;59300;52.074;4.758;2022-12-17T05:16:14;102413.38;;;-3.21;100.00
71485;BME280;59300;52.074;4.758;2022-12-17T05:19:15;102405.53;;;-3.23;100.00
71485;BME280;59300;52.074;4.758;2022-12-17T05:22:17;102413.91;;;-3.27;100.00
71485;BME280;59300;52.074;4.758;2022-12-17T05:25:18;102411.41;;;-3.26;100.00
71485;BME280;59300;52.074;4.758;2022-12-17T05:28:20;102423.50;;;-3.25;100.00
71485;BME280;59300;52.074;4.758;2022-12-17T05:31:21;102427.97;;;-3.22;100.00
71485;BME280;59300;52.074;4.758;2022-12-17T05:34:23;102428.13;;;-3.19;100.00
71485;BME280;59300;52.074;4.758;2022-12-17T05:37:25;102427.25;;;-3.19;100.00
71485;BME280;59300;52.074;4.758;2022-12-17T05:40:26;102424.56;;;-3.21;100.00
71485;BME280;59300;52.074;4.758;2022-12-17T05:43:28;102429.91;;;-3.18;100.00
71485;BME280;59300;52.074;4.758;2022-12-17T05:46:29;102428.94;;;-3.20;100.00
71485;BME280;59300;52.074;4.758;2022-12-17T05:49:31;102427.97;;;-3.22;100.00
71485;BME280;59300;52.074;4.758;2022-12-17T05:52:32;102435.00;;;-3.19;100.00
71485;BME280;59300;52.074;4.758;2022-12-17T05:55:34;102440.41;;;-3.15;100.00
71485;BME280;59300;52.074;4.758;2022-12-17T05:58:36;102443.97;;;-3.13;100.00
71485;BME280;59300;52.074;4.758;2022-12-17T06:01:37;102451.88;;;-3.10;100.00
71485;BME280;59300;52.074;4.758;2022-12-17T06:04:39;102450.91;;;-3.12;100.00
71485;BME280;59300;52.074;4.758;2022-12-17T06:07:40;102443.47;;;-3.05;100.00
71485;BME280;59300;52.074;4.758;2022-12-17T06:10:42;102439.13;;;-3.06;100.00
71485;BME280;59300;52.074;4.758;2022-12-17T06:13:43;102446.16;;;-3.04;100.00
71485;BME280;59300;52.074;4.758;2022-12-17T06:16:45;102453.34;;;-2.98;100.00
71485;BME280;59300;52.074;4.758;2022-12-17T06:19:46;102461.91;;;-2.99;100.00
71485;BME280;59300;52.074;4.758;2022-12-17T06:23:04;102456.75;;;-2.99;100.00
71485;BME280;59300;52.074;4.758;2022-12-17T06:26:06;102459.38;;;-2.98;100.00
71485;BME280;59300;52.074;4.758;2022-12-17T06:29:07;102468.91;;;-2.97;100.00
71485;BME280;59300;52.074;4.758;2022-12-17T06:32:09;102464.00;;;-2.92;100.00
71485;BME280;59300;52.074;4.758;2022-12-17T06:35:10;102468.44;;;-2.89;100.00
71485;BME280;59300;52.074;4.758;2022-12-17T06:38:12;102471.13;;;-2.88;100.00
71485;BME280;59300;52.074;4.758;2022-12-17T06:41:13;102470.38;;;-2.85;100.00
71485;BME280;59300;52.074;4.758;2022-12-17T06:44:15;102465.94;;;-2.88;100.00
71485;BME280;59300;52.074;4.758;2022-12-17T06:47:17;102467.72;;;-2.87;100.00
71485;BME280;59300;52.074;4.758;2022-12-17T06:50:18;102461.75;;;-2.86;100.00
71485;BME280;59300;52.074;4.758;2022-12-17T06:53:20;102453.09;;;-2.86;100.00
71485;BME280;59300;52.074;4.758;2022-12-17T06:56:21;102447.06;;;-2.87;100.00
71485;BME280;59300;52.074;4.758;2022-12-17T06:59:23;102438.34;;;-2.89;100.00
71485;BME280;59300;52.074;4.758;2022-12-17T07:02:24;102446.97;;;-2.88;100.00
71485;BME280;59300;52.074;4.758;2022-12-17T07:05:26;102462.56;;;-2.87;100.00
71485;BME280;59300;52.074;4.758;2022-12-17T07:08:30;102464.16;;;-2.89;100.00
71485;BME280;59300;52.074;4.758;2022-12-17T07:11:31;102456.41;;;-2.89;100.00
71485;BME280;59300;52.074;4.758;2022-12-17T07:14:33;102466.81;;;-2.87;100.00
71485;BME280;59300;52.074;4.758;2022-12-17T07:17:34;102468.59;;;-2.86;100.00
71485;BME280;59300;52.074;4.758;2022-12-17T07:20:36;102473.78;;;-2.86;100.00
71485;BME280;59300;52.074;4.758;2022-12-17T07:23:37;102475.56;;;-2.85;100.00
71485;BME280;59300;52.074;4.758;2022-12-17T07:26:39;102497.13;;;-2.85;100.00
71485;BME280;59300;52.074;4.758;2022-12-17T07:29:41;102497.28;;;-2.82;100.00
71485;BME280;59300;52.074;4.758;2022-12-17T07:32:42;102496.47;;;-2.81;100.00
71485;BME280;59300;52.074;4.758;2022-12-17T07:35:44;102498.19;;;-2.81;100.00
71485;BME280;59300;52.074;4.758;2022-12-17T07:38:45;102500.81;;;-2.80;100.00
71485;BME280;59300;52.074;4.758;2022-12-17T07:41:47;102503.50;;;-2.78;100.00
71485;BME280;59300;52.074;4.758;2022-12-17T07:44:48;102512.94;;;-2.79;100.00
71485;BME280;59300;52.074;4.758;2022-12-17T07:47:53;102522.56;;;-2.76;100.00
71485;BME280;59300;52.074;4.758;2022-12-17T07:50:55;102525.94;;;-2.77;100.00
71485;BME280;59300;52.074;4.758;2022-12-17T07:53:58;102528.63;;;-2.75;100.00
71485;BME280;59300;52.074;4.758;2022-12-17T07:56:59;102538.06;;;-2.76;100.00
71485;BME280;59300;52.074;4.758;2022-12-17T08:00:01;102537.97;;;-2.78;100.00
71485;BME280;59300;52.074;4.758;2022-12-17T08:03:05;102543.94;;;-2.79;100.00
71485;BME280;59300;52.074;4.758;2022-12-17T08:06:06;102545.72;;;-2.78;100.00
71485;BME280;59300;52.074;4.758;2022-12-17T08:09:08;102554.28;;;-2.79;100.00
71485;BME280;59300;52.074;4.758;2022-12-17T08:12:09;102549.94;;;-2.80;100.00
71485;BME280;59300;52.074;4.758;2022-12-17T08:15:11;102545.41;;;-2.84;100.00
71485;BME280;59300;52.074;4.758;2022-12-17T08:18:12;102547.56;;;-2.91;100.00
71485;BME280;59300;52.074;4.758;2022-12-17T08:21:14;102562.00;;;-2.95;100.00
71485;BME280;59300;52.074;4.758;2022-12-17T08:24:15;102553.84;;;-3.03;100.00
71485;BME280;59300;52.074;4.758;2022-12-17T08:27:17;102557.69;;;-3.11;100.00
71485;BME280;59300;52.074;4.758;2022-12-17T08:30:19;102555.66;;;-3.17;100.00
71485;BME280;59300;52.074;4.758;2022-12-17T08:33:20;102555.81;;;-3.14;100.00
71485;BME280;59300;52.074;4.758;2022-12-17T08:36:22;102552.25;;;-3.16;100.00
71485;BME280;59300;52.074;4.758;2022-12-17T08:39:24;102562.41;;;-3.19;100.00
71485;BME280;59300;52.074;4.758;2022-12-17T08:42:26;102564.00;;;-3.21;100.00
71485;BME280;59300;52.074;4.758;2022-12-17T08:45:27;102560.91;;;-3.30;100.00
71485;BME280;59300;52.074;4.758;2022-12-17T08:48:28;102564.75;;;-3.38;100.00
71485;BME280;59300;52.074;4.758;2022-12-17T08:51:30;102569.41;;;-3.48;100.00
71485;BME280;59300;52.074;4.758;2022-12-17T08:54:31;102580.16;;;-3.55;100.00
71485;BME280;59300;52.074;4.758;2022-12-17T08:57:33;102577.94;;;-3.64;100.00
71485;BME280;59300;52.074;4.758;2022-12-17T09:00:34;102571.53;;;-3.71;100.00
71485;BME280;59300;52.074;4.758;2022-12-17T09:03:36;102581.50;;;-3.77;100.00
71485;BME280;59300;52.074;4.758;2022-12-17T09:06:38;102586.66;;;-3.77;100.00
71485;BME280;59300;52.074;4.758;2022-12-17T09:09:39;102579.00;;;-3.75;100.00
71485;BME280;59300;52.074;4.758;2022-12-17T09:12:41;102584.50;;;-3.84;100.00
71485;BME280;59300;52.074;4.758;2022-12-17T09:15:42;102585.03;;;-3.90;100.00
71485;BME280;59300;52.074;4.758;2022-12-17T09:18:44;102587.53;;;-3.91;100.00
71485;BME280;59300;52.074;4.758;2022-12-17T09:21:45;102591.28;;;-3.86;100.00
71485;BME280;59300;52.074;4.758;2022-12-17T09:24:47;102598.56;;;-3.79;100.00
71485;BME280;59300;52.074;4.758;2022-12-17T09:27:49;102599.63;;;-3.75;100.00
71485;BME280;59300;52.074;4.758;2022-12-17T09:30:50;102609.16;;;-3.74;100.00
71485;BME280;59300;52.074;4.758;2022-12-17T09:33:52;102606.59;;;-3.74;100.00
71485;BME280;59300;52.074;4.758;2022-12-17T09:36:53;102614.25;;;-3.76;100.00
71485;BME280;59300;52.074;4.758;2022-12-17T09:39:55;102621.88;;;-3.77;100.00
71485;BME280;59300;52.074;4.758;2022-12-17T09:43:02;102611.66;;;-3.76;100.00
71485;BME280;59300;52.074;4.758;2022-12-17T09:46:36;102627.41;;;-3.71;100.00
71485;BME280;59300;52.074;4.758;2022-12-17T09:49:40;102623.31;;;-3.67;100.00
71485;BME280;59300;52.074;4.758;2022-12-17T09:52:42;102632.03;;;-3.65;100.00
71485;BME280;59300;52.074;4.758;2022-12-17T09:55:49;102639.34;;;-3.58;100.00
71485;BME280;59300;52.074;4.758;2022-12-17T09:58:51;102642.22;;;-3.53;100.00
71485;BME280;59300;52.074;4.758;2022-12-17T10:01:53;102644.06;;;-3.51;100.00
71485;BME280;59300;52.074;4.758;2022-12-17T10:04:54;102634.75;;;-3.49;100.00
71485;BME280;59300;52.074;4.758;2022-12-17T10:07:58;102636.88;;;-3.42;100.00
71485;BME280;59300;52.074;4.758;2022-12-17T10:11:10;102637.06;;;-3.38;100.00
71485;BME280;59300;52.074;4.758;2022-12-17T10:17:21;102634.56;;;-3.22;100.00
71485;BME280;59300;52.074;4.758;2022-12-17T10:20:25;102634.72;;;-3.19;100.00
71485;BME280;59300;52.074;4.758;2022-12-17T10:23:32;102628.06;;;-3.15;100.00
71485;BME280;59300;52.074;4.758;2022-12-17T10:26:34;102632.41;;;-3.14;100.00
71485;BME280;59300;52.074;4.758;2022-12-17T10:29:36;102630.97;;;-3.09;100.00
71485;BME280;59300;52.074;4.758;2022-12-17T10:32:54;102630.25;;;-3.06;100.00
71485;BME280;59300;52.074;4.758;2022-12-17T10:35:55;102625.53;;;-2.99;100.00
71485;BME280;59300;52.074;4.758;2022-12-17T10:38:57;102629.16;;;-2.95;100.00
71485;BME280;59300;52.074;4.758;2022-12-17T10:41:58;102630.41;;;-2.88;100.00
71485;BME280;59300;52.074;4.758;2022-12-17T10:44:59;102631.31;;;-2.88;100.00
71485;BME280;59300;52.074;4.758;2022-12-17T10:48:23;102637.59;;;-2.83;100.00
71485;BME280;59300;52.074;4.758;2022-12-17T10:51:34;102641.53;;;-2.74;100.00
71485;BME280;59300;52.074;4.758;2022-12-17T10:54:36;102636.53;;;-2.71;100.00
71485;BME280;59300;52.074;4.758;2022-12-17T10:57:39;102638.47;;;-2.67;100.00
71485;BME280;59300;52.074;4.758;2022-12-17T11:00:40;102643.00;;;-2.63;100.00
71485;BME280;59300;52.074;4.758;2022-12-17T11:06:54;102642.09;;;-2.49;100.00
71485;BME280;59300;52.074;4.758;2022-12-17T11:09:59;102650.16;;;-2.42;100.00
71485;BME280;59300;52.074;4.758;2022-12-17T11:13:13;102641.81;;;-2.22;100.00
71485;BME280;59300;52.074;4.758;2022-12-17T11:16:27;102642.13;;;-2.16;100.00
71485;BME280;59300;52.074;4.758;2022-12-17T11:19:37;102645.75;;;-2.12;100.00
71485;BME280;59300;52.074;4.758;2022-12-17T11:22:47;102647.28;;;-2.16;100.00
71485;BME280;59300;52.074;4.758;2022-12-17T11:25:59;102648.19;;;-2.15;100.00
71485;BME280;59300;52.074;4.758;2022-12-17T11:29:03;102650.59;;;-2.02;100.00
71485;BME280;59300;52.074;4.758;2022-12-17T11:32:13;102645.66;;;-1.80;100.00
71485;BME280;59300;52.074;4.758;2022-12-17T11:42:27;102642.28;;;-1.79;100.00
71485;BME280;59300;52.074;4.758;2022-12-17T11:45:36;102632.59;;;-1.83;100.00
71485;BME280;59300;52.074;4.758;2022-12-17T11:49:13;102629.44;;;-1.78;100.00
71485;BME280;59300;52.074;4.758;2022-12-17T11:52:27;102630.88;;;-1.83;100.00
71485;BME280;59300;52.074;4.758;2022-12-17T11:55:44;102620.59;;;-1.81;100.00
71485;BME280;59300;52.074;4.758;2022-12-17T11:58:52;102610.22;;;-1.65;100.00
71485;BME280;59300;52.074;4.758;2022-12-17T12:02:05;102613.25;;;-1.56;100.00
71485;BME280;59300;52.074;4.758;2022-12-17T12:12:55;102612.47;;;-1.55;100.00
71485;BME280;59300;52.074;4.758;2022-12-17T12:16:13;102617.75;;;-1.70;100.00
71485;BME280;59300;52.074;4.758;2022-12-17T12:19:29;102616.53;;;-1.60;100.00
71485;BME280;59300;52.074;4.758;2022-12-17T12:23:12;102615.56;;;-1.62;100.00
71485;BME280;59300;52.074;4.758;2022-12-17T12:26:21;102613.38;;;-1.71;100.00
71485;BME280;59300;52.074;4.758;2022-12-17T12:29:27;102618.34;;;-1.75;100.00
71485;BME280;59300;52.074;4.758;2022-12-17T12:33:06;102619.31;;;-1.90;100.00
71485;BME280;59300;52.074;4.758;2022-12-17T12:36:14;102617.22;;;-1.97;100.00
71485;BME280;59300;52.074;4.758;2022-12-17T12:39:21;102625.63;;;-2.01;100.00
71485;BME280;59300;52.074;4.758;2022-12-17T12:42:37;102624.66;;;-2.03;100.00
71485;BME280;59300;52.074;4.758;2022-12-17T12:45:44;102623.19;;;-2.14;100.00
71485;BME280;59300;52.074;4.758;2022-12-17T12:49:04;102621.41;;;-2.16;100.00
71485;BME280;59300;52.074;4.758;2022-12-17T12:52:19;102607.09;;;-2.09;100.00
71485;BME280;59300;52.074;4.758;2022-12-17T12:55:21;102615.09;;;-2.04;100.00
71485;BME280;59300;52.074;4.758;2022-12-17T12:58:29;102618.75;;;-2.17;100.00
71485;BME280;59300;52.074;4.758;2022-12-17T13:01:34;102628.19;;;-2.18;100.00
71485;BME280;59300;52.074;4.758;2022-12-17T13:04:37;102617.72;;;-2.21;100.00
71485;BME280;59300;52.074;4.758;2022-12-17T13:07:38;102623.84;;;-2.19;100.00
71485;BME280;59300;52.074;4.758;2022-12-17T13:10:40;102626.84;;;-2.11;100.00
71485;BME280;59300;52.074;4.758;2022-12-17T13:13:44;102621.41;;;-2.16;100.00
71485;BME280;59300;52.074;4.758;2022-12-17T13:17:02;102621.97;;;-2.21;100.00
71485;BME280;59300;52.074;4.758;2022-12-17T13:23:35;102605.25;;;-2.28;100.00
71485;BME280;59300;52.074;4.758;2022-12-17T13:29:41;102596.69;;;-2.27;100.00
71485;BME280;59300;52.074;4.758;2022-12-17T13:36:13;102604.38;;;-2.28;100.00
71485;BME280;59300;52.074;4.758;2022-12-17T13:39:46;102604.94;;;-2.34;100.00
71485;BME280;59300;52.074;4.758;2022-12-17T13:42:51;102588.84;;;-2.45;100.00
71485;BME280;59300;52.074;4.758;2022-12-17T13:45:54;102590.44;;;-2.47;100.00
71485;BME280;59300;52.074;4.758;2022-12-17T13:49:00;102598.28;;;-2.45;100.00
71485;BME280;59300;52.074;4.758;2022-12-17T13:52:03;102594.75;;;-2.48;100.00
71485;BME280;59300;52.074;4.758;2022-12-17T13:55:24;102598.34;;;-2.60;100.00
71485;BME280;59300;52.074;4.758;2022-12-17T13:58:32;102606.66;;;-2.66;100.00
71485;BME280;59300;52.074;4.758;2022-12-17T14:01:43;102623.75;;;-2.68;100.00
71485;BME280;59300;52.074;4.758;2022-12-17T14:04:50;102600.50;;;-2.68;100.00
71485;BME280;59300;52.074;4.758;2022-12-17T14:07:53;102622.88;;;-2.69;100.00
71485;BME280;59300;52.074;4.758;2022-12-17T14:10:57;102617.47;;;-2.73;100.00
71485;BME280;59300;52.074;4.758;2022-12-17T14:17:37;102611.31;;;-2.75;100.00
71485;BME280;59300;52.074;4.758;2022-12-17T14:20:40;102618.28;;;-2.74;100.00
71485;BME280;59300;52.074;4.758;2022-12-17T14:23:42;102620.84;;;-2.74;100.00
71485;BME280;59300;52.074;4.758;2022-12-17T14:26:49;102628.09;;;-2.84;100.00
71485;BME280;59300;52.074;4.758;2022-12-17T14:29:51;102623.88;;;-2.82;100.00
71485;BME280;59300;52.074;4.758;2022-12-17T14:32:54;102631.50;;;-2.85;100.00
71485;BME280;59300;52.074;4.758;2022-12-17T14:35:57;102638.25;;;-2.87;100.00
71485;BME280;59300;52.074;4.758;2022-12-17T14:39:02;102641.47;;;-2.91;100.00
71485;BME280;59300;52.074;4.758;2022-12-17T14:42:16;102641.47;;;-2.91;100.00
71485;BME280;59300;52.074;4.758;2022-12-17T14:48:24;102643.53;;;-3.00;100.00
71485;BME280;59300;52.074;4.758;2022-12-17T14:54:35;102645.50;;;-2.96;100.00
71485;BME280;59300;52.074;4.758;2022-12-17T14:57:36;102647.91;;;-2.99;100.00
71485;BME280;59300;52.074;4.758;2022-12-17T15:00:47;102638.97;;;-3.04;100.00
71485;BME280;59300;52.074;4.758;2022-12-17T15:03:49;102645.75;;;-3.06;100.00
71485;BME280;59300;52.074;4.758;2022-12-17T15:06:53;102656.81;;;-3.09;100.00
71485;BME280;59300;52.074;4.758;2022-12-17T15:09:55;102662.69;;;-3.12;100.00
71485;BME280;59300;52.074;4.758;2022-12-17T15:13:00;102662.84;;;-3.09;100.00
71485;BME280;59300;52.074;4.758;2022-12-17T15:16:01;102664.81;;;-3.04;100.00
71485;BME280;59300;52.074;4.758;2022-12-17T15:19:03;102671.44;;;-3.10;100.00
71485;BME280;59300;52.074;4.758;2022-12-17T15:22:04;102668.19;;;-3.05;100.00
71485;BME280;59300;52.074;4.758;2022-12-17T15:25:06;102669.78;;;-3.08;100.00
71485;BME280;59300;52.074;4.758;2022-12-17T15:28:09;102674.81;;;-3.11;100.00
71485;BME280;59300;52.074;4.758;2022-12-17T15:31:13;102682.63;;;-3.09;100.00
71485;BME280;59300;52.074;4.758;2022-12-17T15:34:15;102679.25;;;-3.08;100.00
71485;BME280;59300;52.074;4.758;2022-12-17T15:37:16;102687.47;;;-3.15;100.00
71485;BME280;59300;52.074;4.758;2022-12-17T15:40:24;102701.06;;;-3.18;100.00
71485;BME280;59300;52.074;4.758;2022-12-17T15:43:25;102696.53;;;-3.22;100.00
71485;BME280;59300;52.074;4.758;2022-12-17T15:46:27;102694.75;;;-3.23;100.00
71485;BME280;59300;52.074;4.758;2022-12-17T15:49:28;102700.06;;;-3.20;100.00
71485;BME280;59300;52.074;4.758;2022-12-17T15:52:30;102707.94;;;-3.18;100.00
71485;BME280;59300;52.074;4.758;2022-12-17T15:55:32;102705.44;;;-3.17;100.00
71485;BME280;59300;52.074;4.758;2022-12-17T15:58:33;102701.19;;;-3.16;100.00
71485;BME280;59300;52.074;4.758;2022-12-17T16:01:35;102703.47;;;-3.21;100.00
71485;BME280;59300;52.074;4.758;2022-12-17T16:04:37;102703.31;;;-3.24;100.00
71485;BME280;59300;52.074;4.758;2022-12-17T16:07:39;102713.78;;;-3.21;100.00
71485;BME280;59300;52.074;4.758;2022-12-17T16:10:40;102711.22;;;-3.21;100.00
71485;BME280;59300;52.074;4.758;2022-12-17T16:13:42;102705.25;;;-3.20;100.00
71485;BME280;59300;52.074;4.758;2022-12-17T16:16:43;102711.84;;;-3.25;100.00
71485;BME280;59300;52.074;4.758;2022-12-17T16:19:45;102710.47;;;-3.33;100.00
71485;BME280;59300;52.074;4.758;2022-12-17T16:22:46;102705.31;;;-3.33;100.00
71485;BME280;59300;52.074;4.758;2022-12-17T16:25:59;102707.22;;;-3.31;100.00
71485;BME280;59300;52.074;4.758;2022-12-17T16:29:01;102710.59;;;-3.32;100.00
71485;BME280;59300;52.074;4.758;2022-12-17T16:32:02;102712.00;;;-3.37;100.00
71485;BME280;59300;52.074;4.758;2022-12-17T16:35:04;102713.06;;;-3.33;100.00